Time;durP1;ratioP1;P1;durP2;ratioP2;P2;SDS_P1;SDS_P2;PMS_P1;PMS_P2;Temp;Humidity;BMP_temperature;BMP_pressure;BME280_temperature;BME280_humidity;BME280_pressure;Samples;Min_cycle;Max_cycle;Signal;HPM_P1;HPM_P2
2024/04/06 00:01:34;;;;;;;2.53;0.77;;;;;;;;;;5055018;28;20371;-60
2024/04/06 00:04:00;;;;;;;3.17;1.08;;;;;;;;;;5054798;28;20021;-60
2024/04/06 00:06:26;;;;;;;1.67;0.93;;;;;;;;;;5054606;28;20029;-60
2024/04/06 00:08:53;;;;;;;1.88;0.93;;;;;;;;;;5055333;28;20036;-59
2024/04/06 00:11:19;;;;;;;2.05;1.05;;;;;;;;;;5055125;28;20055;-59
2024/04/06 00:13:45;;;;;;;2.65;1.08;;;;;;;;;;5054352;28;20025;-59
2024/04/06 00:16:11;;;;;;;1.75;1.08;;;;;;;;;;5054479;28;20111;-59
2024/04/06 00:18:39;;;;;;;1.60;0.80;;;;;;;;;;5054996;28;20066;-59
2024/04/06 00:21:05;;;;;;;2.25;0.95;;;;;;;;;;5054856;28;20463;-59
2024/04/06 00:23:31;;;;;;;2.95;1.08;;;;;;;;;;5054393;28;20029;-59
2024/04/06 00:25:57;;;;;;;2.35;1.10;;;;;;;;;;5054649;28;20155;-59
2024/04/06 00:28:23;;;;;;;1.52;0.93;;;;;;;;;;5054784;28;20480;-59
2024/04/06 00:30:49;;;;;;;2.22;1.08;;;;;;;;;;5055020;28;20025;-59
2024/04/06 00:33:15;;;;;;;1.75;0.80;;;;;;;;;;5054725;28;20025;-59
2024/04/06 00:35:41;;;;;;;2.35;1.00;;;;;;;;;;5054194;28;20025;-59
2024/04/06 00:38:07;;;;;;;0.98;0.57;;;;;;;;;;5053811;28;20055;-59
2024/04/06 00:40:33;;;;;;;3.05;1.23;;;;;;;;;;5054229;28;20029;-59
2024/04/06 00:42:59;;;;;;;2.20;1.20;;;;;;;;;;5053780;28;20100;-59
2024/04/06 00:45:25;;;;;;;2.90;1.20;;;;;;;;;;5054135;28;20025;-59
2024/04/06 00:47:51;;;;;;;2.50;1.33;;;;;;;;;;5053997;28;20029;-59
2024/04/06 00:50:17;;;;;;;1.42;0.80;;;;;;;;;;5054448;28;20063;-59
2024/04/06 00:52:43;;;;;;;2.55;1.10;;;;;;;;;;5054458;28;20029;-59
2024/04/06 00:55:09;;;;;;;2.03;1.20;;;;;;;;;;5053873;28;20448;-59
2024/04/06 00:57:36;;;;;;;3.38;1.25;;;;;;;;;;5054044;28;20494;-59
2024/04/06 01:00:02;;;;;;;1.65;0.80;;;;;;;;;;5053485;28;20033;-59
2024/04/06 01:02:28;;;;;;;1.35;0.75;;;;;;;;;;5053755;28;20033;-59
2024/04/06 01:04:54;;;;;;;2.67;1.05;;;;;;;;;;5054095;28;20066;-59
2024/04/06 01:07:20;;;;;;;1.80;0.90;;;;;;;;;;5053987;28;20021;-59
2024/04/06 01:09:46;;;;;;;2.10;1.35;;;;;;;;;;5054242;28;20033;-59
2024/04/06 01:12:12;;;;;;;2.17;1.08;;;;;;;;;;5053468;28;20114;-59
2024/04/06 01:14:38;;;;;;;1.50;0.80;;;;;;;;;;5053653;28;20068;-59
2024/04/06 01:17:04;;;;;;;2.30;1.42;;;;;;;;;;5053574;28;20053;-59
2024/04/06 01:19:30;;;;;;;2.42;0.88;;;;;;;;;;5052980;28;20048;-59
2024/04/06 01:21:56;;;;;;;1.95;1.05;;;;;;;;;;5054137;28;20021;-59
2024/04/06 01:24:23;;;;;;;1.25;0.80;;;;;;;;;;5054368;28;20036;-59
2024/04/06 01:26:49;;;;;;;2.35;0.93;;;;;;;;;;5053233;28;20481;-59
2024/04/06 01:29:15;;;;;;;1.60;1.02;;;;;;;;;;5054035;28;20041;-59
2024/04/06 01:31:41;;;;;;;4.38;1.42;;;;;;;;;;5053552;28;20029;-59
2024/04/06 01:34:10;;;;;;;2.17;1.10;;;;;;;;;;5053214;28;20029;-59
2024/04/06 01:36:42;;;;;;;1.98;0.98;;;;;;;;;;5053746;28;20116;-59
2024/04/06 01:39:08;;;;;;;2.72;1.10;;;;;;;;;;5053817;28;20036;-59
2024/04/06 01:41:38;;;;;;;1.48;0.80;;;;;;;;;;5053408;28;20112;-59
2024/04/06 01:44:04;;;;;;;1.63;0.93;;;;;;;;;;5053420;28;20021;-59
2024/04/06 01:46:30;;;;;;;1.60;0.90;;;;;;;;;;5053166;28;20419;-59
2024/04/06 01:48:56;;;;;;;1.73;0.80;;;;;;;;;;5057704;28;20075;-59
2024/04/06 01:51:23;;;;;;;3.33;1.10;;;;;;;;;;5057010;28;20544;-59
2024/04/06 01:53:49;;;;;;;2.97;1.05;;;;;;;;;;5057288;28;20025;-59
2024/04/06 01:56:15;;;;;;;2.13;1.02;;;;;;;;;;5057120;28;20072;-59
2024/04/06 01:58:40;;;;;;;2.03;1.05;;;;;;;;;;5057591;28;20039;-59
2024/04/06 02:01:07;;;;;;;1.58;0.98;;;;;;;;;;5057187;28;20044;-59
2024/04/06 02:03:33;;;;;;;1.83;1.20;;;;;;;;;;5057110;28;20060;-59
2024/04/06 02:06:00;;;;;;;2.42;1.10;;;;;;;;;;5057026;28;20025;-59
2024/04/06 02:08:26;;;;;;;2.80;0.95;;;;;;;;;;5057732;28;20017;-59
2024/04/06 02:10:52;;;;;;;1.73;0.93;;;;;;;;;;5056969;28;20068;-59
2024/04/06 02:13:18;;;;;;;2.30;1.17;;;;;;;;;;5056623;28;20407;-59
2024/04/06 02:15:44;;;;;;;2.20;1.08;;;;;;;;;;5056891;28;20029;-59
2024/04/06 02:18:10;;;;;;;1.75;0.70;;;;;;;;;;5056539;28;20455;-59
2024/04/06 02:20:37;;;;;;;5.13;1.00;;;;;;;;;;5057347;28;20079;-59
2024/04/06 02:23:03;;;;;;;2.33;1.30;;;;;;;;;;5057481;28;20029;-59
2024/04/06 02:25:29;;;;;;;3.10;1.42;;;;;;;;;;5057020;28;20040;-59
2024/04/06 02:27:55;;;;;;;1.85;0.80;;;;;;;;;;5056360;28;20356;-59
2024/04/06 02:30:24;;;;;;;2.30;1.00;;;;;;;;;;5057373;28;20416;-59
2024/04/06 02:32:50;;;;;;;2.17;1.35;;;;;;;;;;5056548;28;20051;-59
2024/04/06 02:35:16;;;;;;;2.65;1.10;;;;;;;;;;5056750;28;20025;-59
2024/04/06 02:37:45;;;;;;;3.67;1.20;;;;;;;;;;5056425;28;20039;-59
2024/04/06 02:40:13;;;;;;;2.30;1.05;;;;;;;;;;5057254;28;20040;-59
2024/04/06 02:42:39;;;;;;;2.00;1.05;;;;;;;;;;5056177;28;20364;-59
2024/04/06 02:45:05;;;;;;;1.75;0.98;;;;;;;;;;5056266;28;20021;-60
2024/04/06 02:47:31;;;;;;;1.98;0.88;;;;;;;;;;5056188;28;20455;-60
2024/04/06 02:49:57;;;;;;;2.10;1.00;;;;;;;;;;5056161;28;20120;-59
2024/04/06 02:52:23;;;;;;;1.83;0.80;;;;;;;;;;5056120;28;20025;-60
2024/04/06 02:54:49;;;;;;;1.63;0.80;;;;;;;;;;5056167;28;20431;-60
2024/04/06 02:57:15;;;;;;;1.75;0.90;;;;;;;;;;5056744;28;20049;-59
2024/04/06 02:59:41;;;;;;;1.73;1.00;;;;;;;;;;5055043;28;20033;-59
2024/04/06 03:02:10;;;;;;;1.55;0.80;;;;;;;;;;5055672;28;20079;-60
2024/04/06 03:04:37;;;;;;;1.23;0.70;;;;;;;;;;5055916;28;20021;-60
2024/04/06 03:07:03;;;;;;;2.30;1.10;;;;;;;;;;5055602;28;20021;-59
2024/04/06 03:09:29;;;;;;;2.67;1.40;;;;;;;;;;5056404;28;20025;-59
2024/04/06 03:11:55;;;;;;;2.25;1.27;;;;;;;;;;5055866;28;20063;-59
2024/04/06 03:14:21;;;;;;;5.68;1.27;;;;;;;;;;5055788;28;20025;-59
2024/04/06 03:16:47;;;;;;;1.88;1.05;;;;;;;;;;5056262;28;20032;-59
2024/04/06 03:19:13;;;;;;;3.47;1.52;;;;;;;;;;5056344;28;20070;-59
2024/04/06 03:21:39;;;;;;;2.70;1.25;;;;;;;;;;5055623;28;20021;-59
2024/04/06 03:24:05;;;;;;;3.42;1.02;;;;;;;;;;5056182;28;20032;-59
2024/04/06 03:26:31;;;;;;;2.45;1.35;;;;;;;;;;5055862;28;20035;-59
2024/04/06 03:28:57;;;;;;;2.90;1.08;;;;;;;;;;5056091;28;20115;-59
2024/04/06 03:31:23;;;;;;;1.80;1.10;;;;;;;;;;5055194;28;20108;-59
2024/04/06 03:33:49;;;;;;;1.65;1.02;;;;;;;;;;5055131;28;20021;-59
2024/04/06 03:36:15;;;;;;;1.88;1.30;;;;;;;;;;5055962;28;20115;-59
2024/04/06 03:38:41;;;;;;;2.13;1.08;;;;;;;;;;5055911;28;20025;-59
2024/04/06 03:41:07;;;;;;;3.03;1.30;;;;;;;;;;5055292;28;20028;-59
2024/04/06 03:43:33;;;;;;;4.53;1.13;;;;;;;;;;5055991;28;20032;-59
2024/04/06 03:45:59;;;;;;;2.15;1.10;;;;;;;;;;5055464;28;20367;-59
2024/04/06 03:48:25;;;;;;;1.80;0.98;;;;;;;;;;5055657;28;20451;-59
2024/04/06 03:50:51;;;;;;;1.88;1.00;;;;;;;;;;5055598;28;20039;-59
2024/04/06 03:53:29;;;;;;;2.28;1.30;;;;;;;;;;5055878;28;20039;-59
2024/04/06 03:55:55;;;;;;;1.85;1.27;;;;;;;;;;5055421;28;20025;-59
2024/04/06 03:58:21;;;;;;;5.45;1.45;;;;;;;;;;5054958;28;20044;-59
2024/04/06 04:00:47;;;;;;;2.83;1.02;;;;;;;;;;5055482;28;20021;-59
2024/04/06 04:03:13;;;;;;;3.47;1.45;;;;;;;;;;5055285;28;20112;-59
2024/04/06 04:05:39;;;;;;;2.17;1.33;;;;;;;;;;5054526;28;20059;-59
2024/04/06 04:08:05;;;;;;;3.65;1.63;;;;;;;;;;5054669;28;20086;-59
2024/04/06 04:10:31;;;;;;;2.90;1.20;;;;;;;;;;5054570;28;20402;-59
2024/04/06 04:13:00;;;;;;;2.85;1.52;;;;;;;;;;5054617;28;20025;-59
2024/04/06 04:15:26;;;;;;;3.30;1.70;;;;;;;;;;5054619;28;20070;-59
2024/04/06 04:17:52;;;;;;;3.47;1.60;;;;;;;;;;5054603;28;20025;-59
2024/04/06 04:20:18;;;;;;;3.88;1.75;;;;;;;;;;5054649;28;20083;-59
2024/04/06 04:22:44;;;;;;;1.55;0.90;;;;;;;;;;5054461;28;20032;-59
2024/04/06 04:25:10;;;;;;;2.72;1.30;;;;;;;;;;5055002;28;20033;-59
2024/04/06 04:27:36;;;;;;;2.28;1.00;;;;;;;;;;5054856;28;20467;-59
2024/04/06 04:30:02;;;;;;;2.17;1.33;;;;;;;;;;5054207;28;20036;-59
2024/04/06 04:32:28;;;;;;;2.38;1.40;;;;;;;;;;5054300;28;20021;-59
2024/04/06 04:34:54;;;;;;;2.15;1.25;;;;;;;;;;5054253;28;20404;-59
2024/04/06 04:37:20;;;;;;;2.38;1.30;;;;;;;;;;5054538;28;20399;-59
2024/04/06 04:39:46;;;;;;;2.13;1.25;;;;;;;;;;5054502;28;20478;-59
2024/04/06 04:42:12;;;;;;;2.88;1.58;;;;;;;;;;5054421;28;20455;-59
2024/04/06 04:44:38;;;;;;;2.60;1.33;;;;;;;;;;5054584;28;20443;-59
2024/04/06 04:47:04;;;;;;;2.17;1.35;;;;;;;;;;5054174;28;20430;-59
2024/04/06 04:49:30;;;;;;;3.10;1.60;;;;;;;;;;5054274;28;20038;-59
2024/04/06 04:51:56;;;;;;;2.65;1.23;;;;;;;;;;5054009;28;20083;-59
2024/04/06 04:54:22;;;;;;;2.65;1.40;;;;;;;;;;5054444;28;20429;-59
2024/04/06 04:56:48;;;;;;;5.30;1.50;;;;;;;;;;5053918;28;20068;-59
2024/04/06 04:59:14;;;;;;;2.97;1.23;;;;;;;;;;5054688;28;20032;-59
2024/04/06 05:01:40;;;;;;;2.60;1.23;;;;;;;;;;5054635;28;20403;-59
2024/04/06 05:04:06;;;;;;;2.17;1.20;;;;;;;;;;5053820;28;20033;-60
2024/04/06 05:06:32;;;;;;;2.20;1.30;;;;;;;;;;5054626;28;20092;-59
2024/04/06 05:08:58;;;;;;;2.00;1.20;;;;;;;;;;5054350;28;20032;-59
2024/04/06 05:11:24;;;;;;;1.75;1.20;;;;;;;;;;5053770;28;20032;-59
2024/04/06 05:13:50;;;;;;;2.67;1.35;;;;;;;;;;5053724;28;20025;-60
2024/04/06 05:16:17;;;;;;;1.80;1.13;;;;;;;;;;5053822;28;20418;-59
2024/04/06 05:18:43;;;;;;;2.00;1.25;;;;;;;;;;5054277;28;20037;-60
2024/04/06 05:21:09;;;;;;;2.13;1.02;;;;;;;;;;5053597;28;20025;-59
2024/04/06 05:23:35;;;;;;;1.77;1.20;;;;;;;;;;5053137;28;20466;-59
2024/04/06 05:26:01;;;;;;;2.38;1.42;;;;;;;;;;5053635;28;20032;-59
2024/04/06 05:28:27;;;;;;;2.55;1.50;;;;;;;;;;5053944;28;20028;-59
2024/04/06 05:30:53;;;;;;;2.35;1.20;;;;;;;;;;5054160;28;20025;-59
2024/04/06 05:33:20;;;;;;;1.27;0.70;;;;;;;;;;5054153;28;20025;-59
2024/04/06 05:35:47;;;;;;;3.55;0.95;;;;;;;;;;5053529;28;20398;-59
2024/04/06 05:38:14;;;;;;;2.83;1.20;;;;;;;;;;5053834;28;20035;-60
2024/04/06 05:40:40;;;;;;;2.65;1.58;;;;;;;;;;5053994;28;20050;-59
2024/04/06 05:43:07;;;;;;;1.50;1.00;;;;;;;;;;5053379;28;20029;-59
2024/04/06 05:45:33;;;;;;;3.30;1.63;;;;;;;;;;5053396;28;20036;-59
2024/04/06 05:48:05;;;;;;;1.67;0.95;;;;;;;;;;5053410;28;20021;-59
2024/04/06 05:50:32;;;;;;;2.90;1.30;;;;;;;;;;5053935;28;20466;-59
2024/04/06 05:52:58;;;;;;;2.00;1.15;;;;;;;;;;5053067;28;20463;-59
2024/04/06 05:55:24;;;;;;;2.22;0.98;;;;;;;;;;5053027;28;20112;-60
2024/04/06 05:57:51;;;;;;;1.98;1.10;;;;;;;;;;5053236;28;20053;-60
2024/04/06 06:00:17;;;;;;;1.92;0.90;;;;;;;;;;5054107;28;20036;-59
2024/04/06 06:02:43;;;;;;;1.98;1.15;;;;;;;;;;5053250;28;20021;-59
2024/04/06 06:05:09;;;;;;;1.88;1.05;;;;;;;;;;5053308;28;20025;-59
2024/04/06 06:07:36;;;;;;;3.85;1.38;;;;;;;;;;5053775;28;20091;-59
2024/04/06 06:10:02;;;;;;;2.38;1.42;;;;;;;;;;5053671;28;20076;-59
2024/04/06 06:12:28;;;;;;;2.00;1.20;;;;;;;;;;5053196;28;20025;-61
2024/04/06 06:14:54;;;;;;;2.22;1.23;;;;;;;;;;5053193;28;20150;-59
2024/04/06 06:17:20;;;;;;;3.15;1.63;;;;;;;;;;5053432;28;20056;-59
2024/04/06 06:19:46;;;;;;;4.80;1.23;;;;;;;;;;5053703;28;20029;-59
2024/04/06 06:22:12;;;;;;;4.20;1.00;;;;;;;;;;5053130;28;20021;-59
2024/04/06 06:24:41;;;;;;;2.88;1.02;;;;;;;;;;5053867;28;20025;-59
2024/04/06 06:27:07;;;;;;;1.80;1.05;;;;;;;;;;5053034;28;20040;-59
2024/04/06 06:29:34;;;;;;;2.90;1.50;;;;;;;;;;5053583;28;20033;-59
2024/04/06 06:31:59;;;;;;;3.90;1.25;;;;;;;;;;5053580;28;20462;-59
2024/04/06 06:34:26;;;;;;;1.88;1.05;;;;;;;;;;5054025;28;20033;-59
2024/04/06 06:36:52;;;;;;;2.35;1.30;;;;;;;;;;5056553;28;20025;-59
2024/04/06 06:39:18;;;;;;;2.20;1.10;;;;;;;;;;5056893;28;20029;-59
2024/04/06 06:41:44;;;;;;;2.13;1.17;;;;;;;;;;5056395;28;20025;-59
2024/04/06 06:44:10;;;;;;;4.00;1.05;;;;;;;;;;5057007;28;20025;-59
2024/04/06 06:46:36;;;;;;;1.58;0.98;;;;;;;;;;5056605;28;20024;-59
2024/04/06 06:49:02;;;;;;;2.30;1.10;;;;;;;;;;5056642;28;20375;-59
2024/04/06 06:51:28;;;;;;;2.88;1.10;;;;;;;;;;5056358;28;20056;-59
2024/04/06 06:53:54;;;;;;;2.20;1.42;;;;;;;;;;5055520;28;20592;-59
2024/04/06 06:56:22;;;;;;;2.00;1.15;;;;;;;;;;5056547;28;20145;-59
2024/04/06 06:58:49;;;;;;;1.98;0.93;;;;;;;;;;5056039;28;20040;-58
2024/04/06 07:01:14;;;;;;;4.80;1.50;;;;;;;;;;5056160;28;20370;-58
2024/04/06 07:03:40;;;;;;;2.30;1.35;;;;;;;;;;5056105;28;20025;-59
2024/04/06 07:06:08;;;;;;;2.15;1.02;;;;;;;;;;5055935;28;20151;-59
2024/04/06 07:08:34;;;;;;;1.77;1.02;;;;;;;;;;5056381;28;20082;-58
2024/04/06 07:11:04;;;;;;;4.07;1.35;;;;;;;;;;5056572;28;20395;-62
2024/04/06 07:13:30;;;;;;;1.83;0.90;;;;;;;;;;5054465;28;20418;-58
2024/04/06 07:16:12;;;;;;;1.63;0.90;;;;;;;;;;5055560;28;20382;-59
2024/04/06 07:18:39;;;;;;;3.03;1.13;;;;;;;;;;5056301;28;20401;-59
2024/04/06 07:21:06;;;;;;;2.53;1.10;;;;;;;;;;5055629;28;20413;-59
2024/04/06 07:23:32;;;;;;;1.70;0.80;;;;;;;;;;5055491;28;20025;-59
2024/04/06 07:25:58;;;;;;;4.82;0.85;;;;;;;;;;5055564;28;20032;-59
2024/04/06 07:28:24;;;;;;;2.00;1.10;;;;;;;;;;5056206;28;20401;-59
2024/04/06 07:30:50;;;;;;;1.92;0.82;;;;;;;;;;5055205;28;20021;-59
2024/04/06 07:33:16;;;;;;;4.43;0.82;;;;;;;;;;5056012;28;20033;-59
2024/04/06 07:35:42;;;;;;;3.90;1.10;;;;;;;;;;5055353;28;20036;-59
2024/04/06 07:38:08;;;;;;;1.70;0.98;;;;;;;;;;5055370;28;20021;-59
2024/04/06 07:40:34;;;;;;;2.00;0.95;;;;;;;;;;5055851;28;20028;-59
2024/04/06 07:43:01;;;;;;;3.13;1.50;;;;;;;;;;5054889;28;20062;-59
2024/04/06 07:45:27;;;;;;;2.10;1.30;;;;;;;;;;5055322;28;20029;-59
2024/04/06 07:47:53;;;;;;;1.88;1.08;;;;;;;;;;5055271;28;20351;-59
2024/04/06 07:50:19;;;;;;;4.30;1.00;;;;;;;;;;5055551;28;20379;-59
2024/04/06 07:52:45;;;;;;;2.47;1.27;;;;;;;;;;5053850;28;20025;-59
2024/04/06 07:55:14;;;;;;;2.83;1.27;;;;;;;;;;5055530;28;20160;-59
2024/04/06 07:57:41;;;;;;;1.83;0.90;;;;;;;;;;5055187;28;20115;-59
2024/04/06 08:00:07;;;;;;;1.63;0.82;;;;;;;;;;5054956;28;20197;-59
2024/04/06 08:02:33;;;;;;;2.65;1.23;;;;;;;;;;5054770;28;20139;-59
2024/04/06 08:04:59;;;;;;;1.80;1.15;;;;;;;;;;5054751;28;20029;-59
2024/04/06 08:07:26;;;;;;;3.72;1.50;;;;;;;;;;5054801;28;20055;-59
2024/04/06 08:09:57;;;;;;;3.20;1.33;;;;;;;;;;5055267;28;20039;-59
2024/04/06 08:12:23;;;;;;;1.48;0.88;;;;;;;;;;5055468;28;20025;-59
2024/04/06 08:14:49;;;;;;;1.98;1.00;;;;;;;;;;5055337;28;20017;-59
2024/04/06 08:17:15;;;;;;;2.13;1.10;;;;;;;;;;5053929;28;20033;-59
2024/04/06 08:19:41;;;;;;;2.28;1.00;;;;;;;;;;5054827;28;20029;-59
2024/04/06 08:22:07;;;;;;;3.70;0.77;;;;;;;;;;5054232;28;20033;-59
2024/04/06 08:24:33;;;;;;;2.20;1.50;;;;;;;;;;5054004;28;20054;-60
2024/04/06 08:26:59;;;;;;;2.10;1.20;;;;;;;;;;5053938;28;20021;-60
2024/04/06 08:29:25;;;;;;;2.75;0.95;;;;;;;;;;5054213;28;20110;-60
2024/04/06 08:31:51;;;;;;;1.40;0.95;;;;;;;;;;5054006;28;20024;-60
2024/04/06 08:34:17;;;;;;;1.27;0.75;;;;;;;;;;5054543;28;20027;-58
2024/04/06 08:36:43;;;;;;;3.88;1.25;;;;;;;;;;5054679;28;20355;-60
2024/04/06 08:39:09;;;;;;;1.98;1.00;;;;;;;;;;5054846;28;20470;-60
2024/04/06 08:41:36;;;;;;;3.83;1.25;;;;;;;;;;5054400;28;20078;-60
2024/04/06 08:44:02;;;;;;;2.15;1.08;;;;;;;;;;5054831;28;20047;-58
2024/04/06 08:46:29;;;;;;;2.63;1.13;;;;;;;;;;5054671;28;20321;-58
2024/04/06 08:48:55;;;;;;;2.13;0.90;;;;;;;;;;5053895;28;20029;-58
2024/04/06 08:51:23;;;;;;;2.08;0.98;;;;;;;;;;5054796;28;20079;-58
2024/04/06 08:53:48;;;;;;;2.05;1.08;;;;;;;;;;5053880;28;20112;-58
2024/04/06 08:56:15;;;;;;;1.58;0.70;;;;;;;;;;5053973;28;20535;-60
2024/04/06 08:58:41;;;;;;;1.73;0.90;;;;;;;;;;5053959;28;20033;-59
2024/04/06 09:01:07;;;;;;;4.60;1.02;;;;;;;;;;5054098;28;20025;-59
2024/04/06 09:03:34;;;;;;;3.20;1.70;;;;;;;;;;5054553;28;20332;-59
2024/04/06 09:06:00;;;;;;;7.30;1.10;;;;;;;;;;5053579;28;20375;-59
2024/04/06 09:08:26;;;;;;;2.80;1.25;;;;;;;;;;5054318;28;20095;-60
2024/04/06 09:10:57;;;;;;;5.07;0.90;;;;;;;;;;5053776;28;20375;-59
2024/04/06 09:13:23;;;;;;;3.55;1.48;;;;;;;;;;5054340;28;20029;-59
2024/04/06 09:15:49;;;;;;;1.75;0.77;;;;;;;;;;5053779;28;20028;-59
2024/04/06 09:18:16;;;;;;;1.58;0.60;;;;;;;;;;5053299;28;20024;-59
2024/04/06 09:20:42;;;;;;;2.03;1.02;;;;;;;;;;5053322;28;20037;-59
2024/04/06 09:23:08;;;;;;;3.38;1.25;;;;;;;;;;5054091;28;20108;-58
2024/04/06 09:25:34;;;;;;;1.63;0.95;;;;;;;;;;5053428;28;20061;-58
2024/04/06 09:28:04;;;;;;;2.95;0.85;;;;;;;;;;5053479;28;20382;-59
2024/04/06 09:30:43;;;;;;;2.55;1.33;;;;;;;;;;5054035;28;20120;-58
2024/04/06 09:33:11;;;;;;;1.08;0.55;;;;;;;;;;5051954;28;20029;-59
2024/04/06 09:35:39;;;;;;;1.45;0.60;;;;;;;;;;5053899;28;20021;-59
2024/04/06 09:38:06;;;;;;;1.60;0.65;;;;;;;;;;5053929;28;20021;-60
2024/04/06 09:40:33;;;;;;;1.42;0.73;;;;;;;;;;5053493;28;20044;-59
2024/04/06 09:42:59;;;;;;;2.20;1.20;;;;;;;;;;5053295;28;20044;-59
2024/04/06 09:45:25;;;;;;;4.38;1.35;;;;;;;;;;5053313;28;20021;-60
2024/04/06 09:47:51;;;;;;;3.75;1.40;;;;;;;;;;5053228;28;20041;-59
2024/04/06 09:50:18;;;;;;;2.00;0.85;;;;;;;;;;5053584;28;20033;-60
2024/04/06 09:52:44;;;;;;;2.38;1.30;;;;;;;;;;5054248;28;20033;-60
2024/04/06 09:55:10;;;;;;;1.65;0.80;;;;;;;;;;5053708;28;20055;-60
2024/04/06 09:57:36;;;;;;;4.35;1.02;;;;;;;;;;5053518;28;20088;-60
2024/04/06 10:00:04;;;;;;;1.67;0.70;;;;;;;;;;5053958;28;20033;-60
2024/04/06 10:02:34;;;;;;;1.58;0.80;;;;;;;;;;5053963;28;20071;-60
2024/04/06 10:05:01;;;;;;;2.37;1.00;;;;;;;;;;5052920;28;20025;-59
2024/04/06 10:07:28;;;;;;;1.65;0.73;;;;;;;;;;5053841;28;20259;-59
2024/04/06 10:10:00;;;;;;;1.80;0.90;;;;;;;;;;5057004;28;20426;-59
2024/04/06 10:12:53;;;;;;;2.63;1.02;;;;;;;;;;5056817;28;20024;-60
2024/04/06 10:15:21;;;;;;;1.60;0.77;;;;;;;;;;5055698;28;20044;-58
2024/04/06 10:17:48;;;;;;;1.38;0.60;;;;;;;;;;5056843;28;20112;-58
2024/04/06 10:20:17;;;;;;;1.00;0.45;;;;;;;;;;5057635;28;20065;-57
2024/04/06 10:22:50;;;;;;;1.83;0.90;;;;;;;;;;5057140;28;20107;-58
2024/04/06 10:25:20;;;;;;;2.03;1.00;;;;;;;;;;5056971;28;20021;-58
2024/04/06 10:27:47;;;;;;;2.63;1.00;;;;;;;;;;5056970;28;20052;-58
2024/04/06 10:30:13;;;;;;;2.20;0.82;;;;;;;;;;5057289;28;20037;-58
2024/04/06 10:32:39;;;;;;;1.80;0.70;;;;;;;;;;5057283;28;20390;-58
2024/04/06 10:35:05;;;;;;;1.67;0.98;;;;;;;;;;5056560;28;20033;-58
2024/04/06 10:37:31;;;;;;;1.10;0.50;;;;;;;;;;5057031;28;20021;-58
2024/04/06 10:39:57;;;;;;;1.88;0.60;;;;;;;;;;5056807;28;20116;-58
2024/04/06 10:42:26;;;;;;;0.98;0.45;;;;;;;;;;5056401;28;20029;-58
2024/04/06 10:44:52;;;;;;;1.05;0.50;;;;;;;;;;5056385;28;20068;-58
2024/04/06 10:47:19;;;;;;;1.52;0.50;;;;;;;;;;5056349;28;20029;-59
2024/04/06 10:49:48;;;;;;;1.67;0.77;;;;;;;;;;5056487;28;20049;-58
2024/04/06 10:52:15;;;;;;;1.20;0.57;;;;;;;;;;5056374;28;20121;-58
2024/04/06 10:54:41;;;;;;;1.35;0.63;;;;;;;;;;5056188;28;20108;-58
2024/04/06 10:57:07;;;;;;;1.25;0.50;;;;;;;;;;5056041;28;20403;-59
2024/04/06 10:59:33;;;;;;;1.23;0.60;;;;;;;;;;5056202;28;20029;-58
2024/04/06 11:01:59;;;;;;;1.17;0.55;;;;;;;;;;5055872;28;20474;-59
2024/04/06 11:04:25;;;;;;;2.40;0.95;;;;;;;;;;5056569;28;20059;-59
2024/04/06 11:06:51;;;;;;;1.13;0.60;;;;;;;;;;5056461;28;20021;-58
2024/04/06 11:09:17;;;;;;;1.20;0.70;;;;;;;;;;5056337;28;20033;-59
2024/04/06 11:11:43;;;;;;;1.10;0.50;;;;;;;;;;5056040;28;20032;-59
2024/04/06 11:14:10;;;;;;;1.48;0.63;;;;;;;;;;5056287;28;20021;-58
2024/04/06 11:16:40;;;;;;;2.25;0.70;;;;;;;;;;5056019;28;20418;-59
2024/04/06 11:19:06;;;;;;;1.38;0.50;;;;;;;;;;5056411;28;20024;-59
2024/04/06 11:21:33;;;;;;;1.17;0.60;;;;;;;;;;5054610;28;20029;-58
2024/04/06 11:23:59;;;;;;;1.48;0.77;;;;;;;;;;5055606;28;20017;-58
2024/04/06 11:26:25;;;;;;;1.23;0.55;;;;;;;;;;5056204;28;20356;-59
2024/04/06 11:28:50;;;;;;;1.50;0.65;;;;;;;;;;5056096;28;20032;-59
2024/04/06 11:31:21;;;;;;;1.85;0.85;;;;;;;;;;5055979;28;20060;-59
2024/04/06 11:33:47;;;;;;;2.58;0.52;;;;;;;;;;5055819;28;20447;-58
2024/04/06 11:36:13;;;;;;;2.15;0.93;;;;;;;;;;5055101;28;20539;-58
2024/04/06 11:38:39;;;;;;;2.20;0.50;;;;;;;;;;5056086;28;20056;-58
2024/04/06 11:41:05;;;;;;;1.23;0.60;;;;;;;;;;5055384;28;20399;-58
2024/04/06 11:43:31;;;;;;;1.92;0.90;;;;;;;;;;5055230;28;20029;-58
2024/04/06 11:45:56;;;;;;;1.15;0.50;;;;;;;;;;5055321;28;20067;-59
2024/04/06 11:48:22;;;;;;;2.60;0.50;;;;;;;;;;5055575;28;20102;-58
2024/04/06 11:50:48;;;;;;;1.05;0.57;;;;;;;;;;5055071;28;20036;-59
2024/04/06 11:53:15;;;;;;;1.52;0.60;;;;;;;;;;5055073;28;20021;-59
2024/04/06 11:55:41;;;;;;;1.13;0.50;;;;;;;;;;5054997;28;20040;-59
2024/04/06 11:58:07;;;;;;;1.50;0.50;;;;;;;;;;5055442;28;20049;-60
2024/04/06 12:00:33;;;;;;;2.72;0.65;;;;;;;;;;5054836;28;20047;-60
2024/04/06 12:02:59;;;;;;;1.23;0.60;;;;;;;;;;5054528;28;20028;-58
2024/04/06 12:05:26;;;;;;;1.90;0.73;;;;;;;;;;5054781;28;20523;-58
2024/04/06 12:07:52;;;;;;;1.70;0.52;;;;;;;;;;5055191;28;20406;-58
2024/04/06 12:10:18;;;;;;;3.65;0.52;;;;;;;;;;5054310;28;20029;-59
2024/04/06 12:12:44;;;;;;;1.55;0.52;;;;;;;;;;5054658;28;20064;-59
2024/04/06 12:15:11;;;;;;;1.33;0.60;;;;;;;;;;5054604;28;20056;-59
2024/04/06 12:17:37;;;;;;;2.03;0.52;;;;;;;;;;5054585;28;20415;-60
2024/04/06 12:20:03;;;;;;;1.50;0.73;;;;;;;;;;5054894;28;20074;-59
2024/04/06 12:22:30;;;;;;;0.57;0.32;;;;;;;;;;5055069;28;20021;-59
2024/04/06 12:24:56;;;;;;;1.27;0.52;;;;;;;;;;5055020;28;20091;-59
2024/04/06 12:27:22;;;;;;;0.65;0.32;;;;;;;;;;5054505;28;20139;-59
2024/04/06 12:29:49;;;;;;;1.80;0.60;;;;;;;;;;5054935;28;20037;-59
2024/04/06 12:32:15;;;;;;;1.15;0.55;;;;;;;;;;5053910;28;20371;-59
2024/04/06 12:34:41;;;;;;;1.58;0.95;;;;;;;;;;5054595;28;20117;-59
2024/04/06 12:37:10;;;;;;;1.52;0.68;;;;;;;;;;5054114;28;20485;-59
2024/04/06 12:39:37;;;;;;;1.33;0.63;;;;;;;;;;5054772;28;20032;-59
2024/04/06 12:42:03;;;;;;;1.05;0.47;;;;;;;;;;5054048;28;20119;-59
2024/04/06 12:44:29;;;;;;;1.20;0.50;;;;;;;;;;5054711;28;20025;-59
2024/04/06 12:46:55;;;;;;;1.33;0.52;;;;;;;;;;5053816;28;20414;-59
2024/04/06 12:49:21;;;;;;;1.88;0.60;;;;;;;;;;5054019;28;20033;-59
2024/04/06 12:51:47;;;;;;;1.48;0.55;;;;;;;;;;5054082;28;20071;-59
2024/04/06 12:54:13;;;;;;;1.30;0.50;;;;;;;;;;5053960;28;20024;-59
2024/04/06 12:59:25;;;;;;;1.27;0.40;;;;;;;;;;5053971;28;20087;-59
2024/04/06 13:01:52;;;;;;;1.00;0.50;;;;;;;;;;5054336;28;20155;-59
2024/04/06 13:04:18;;;;;;;0.82;0.35;;;;;;;;;;5053706;28;20036;-59
2024/04/06 13:06:44;;;;;;;1.30;0.50;;;;;;;;;;5053630;28;20013;-59
2024/04/06 13:09:10;;;;;;;1.00;0.50;;;;;;;;;;5053403;28;20021;-59
2024/04/06 13:11:39;;;;;;;1.73;0.57;;;;;;;;;;5054075;28;20033;-58
2024/04/06 13:14:05;;;;;;;1.50;0.70;;;;;;;;;;5053444;28;20056;-59
2024/04/06 13:16:31;;;;;;;0.93;0.40;;;;;;;;;;5053784;28;20048;-58
2024/04/06 13:18:58;;;;;;;1.58;0.55;;;;;;;;;;5054254;28;20057;-58
2024/04/06 13:21:24;;;;;;;1.58;0.50;;;;;;;;;;5054209;28;20033;-59
2024/04/06 13:23:50;;;;;;;1.42;0.40;;;;;;;;;;5053507;28;20470;-59
2024/04/06 13:26:16;;;;;;;2.75;0.50;;;;;;;;;;5053840;28;20036;-59
2024/04/06 13:28:42;;;;;;;1.95;0.60;;;;;;;;;;5053420;28;20033;-59
2024/04/06 13:31:09;;;;;;;2.03;0.60;;;;;;;;;;5053547;28;20037;-59
2024/04/06 13:33:36;;;;;;;0.88;0.43;;;;;;;;;;5053425;28;20029;-59
2024/04/06 13:36:03;;;;;;;1.00;0.38;;;;;;;;;;5053197;28;20386;-59
2024/04/06 13:38:29;;;;;;;0.73;0.43;;;;;;;;;;5054258;28;20021;-59
2024/04/06 13:40:55;;;;;;;1.60;0.80;;;;;;;;;;5053285;28;20418;-59
2024/04/06 13:43:21;;;;;;;1.55;0.60;;;;;;;;;;5053938;28;20025;-59
2024/04/06 13:45:47;;;;;;;1.08;0.40;;;;;;;;;;5057430;28;20079;-59
2024/04/06 13:48:13;;;;;;;2.35;0.52;;;;;;;;;;5057999;28;20111;-59
2024/04/06 13:50:40;;;;;;;1.42;0.52;;;;;;;;;;5057292;28;20029;-59
2024/04/06 13:53:06;;;;;;;1.35;0.60;;;;;;;;;;5058124;28;20108;-59
2024/04/06 13:55:32;;;;;;;1.40;0.60;;;;;;;;;;5057818;28;20332;-59
2024/04/06 13:57:58;;;;;;;2.85;0.82;;;;;;;;;;5057968;28;20052;-59
2024/04/06 14:00:24;;;;;;;1.23;0.52;;;;;;;;;;5057889;28;20163;-59
2024/04/06 14:02:50;;;;;;;2.05;0.70;;;;;;;;;;5057141;28;20071;-59
2024/04/06 14:05:16;;;;;;;1.20;0.50;;;;;;;;;;5057871;28;20021;-59
2024/04/06 14:07:43;;;;;;;0.68;0.47;;;;;;;;;;5057063;28;20132;-59
2024/04/06 14:10:09;;;;;;;1.85;0.80;;;;;;;;;;5057373;28;20028;-59
2024/04/06 14:12:35;;;;;;;1.25;0.50;;;;;;;;;;5056995;28;20033;-59
2024/04/06 14:15:01;;;;;;;2.00;0.60;;;;;;;;;;5056800;28;20027;-59
2024/04/06 14:17:27;;;;;;;1.52;0.60;;;;;;;;;;5056315;28;20047;-59
2024/04/06 14:19:53;;;;;;;1.23;0.38;;;;;;;;;;5057531;28;20359;-59
2024/04/06 14:22:19;;;;;;;2.35;0.88;;;;;;;;;;5056781;28;20024;-59
2024/04/06 14:24:45;;;;;;;7.97;1.23;;;;;;;;;;5056580;28;20036;-59
2024/04/06 14:27:11;;;;;;;8.13;1.10;;;;;;;;;;5056746;28;20032;-59
2024/04/06 14:29:37;;;;;;;1.38;0.55;;;;;;;;;;5057261;28;20104;-59
2024/04/06 14:32:03;;;;;;;0.73;0.43;;;;;;;;;;5056750;28;20124;-59
2024/04/06 14:34:29;;;;;;;1.40;0.55;;;;;;;;;;5057024;28;20040;-59
2024/04/06 14:36:56;;;;;;;1.65;0.50;;;;;;;;;;5056363;28;20382;-59
2024/04/06 14:39:22;;;;;;;1.15;0.60;;;;;;;;;;5057163;28;20060;-59
2024/04/06 14:41:48;;;;;;;1.38;0.38;;;;;;;;;;5056968;28;20017;-59